createdAt,value
2018-05-10T00:00:08.188Z,0
2018-05-10T00:01:08.860Z,0
2018-05-10T00:02:09.582Z,0
2018-05-10T00:03:10.257Z,0
2018-05-10T00:04:10.927Z,0
2018-05-10T00:05:11.599Z,0
2018-05-10T00:06:12.274Z,0
2018-05-10T00:07:12.945Z,0
2018-05-10T00:08:13.621Z,0
2018-05-10T00:09:14.293Z,0
2018-05-10T00:10:14.966Z,0
2018-05-10T00:11:15.640Z,0
2018-05-10T00:12:16.310Z,0
2018-05-10T00:13:16.981Z,0
2018-05-10T00:14:17.652Z,0
2018-05-10T00:15:18.328Z,0
2018-05-10T00:16:19.009Z,0
2018-05-10T00:17:19.681Z,0
2018-05-10T00:18:20.351Z,0
2018-05-10T00:19:21.022Z,0
2018-05-10T00:20:21.694Z,0
2018-05-10T00:21:22.376Z,0
2018-05-10T00:22:23.054Z,0
2018-05-10T00:23:23.729Z,0
2018-05-10T00:24:24.468Z,0
2018-05-10T00:25:25.077Z,0
2018-05-10T00:26:25.749Z,0
2018-05-10T00:27:26.420Z,0
2018-05-10T00:28:27.091Z,0
2018-05-10T00:29:27.762Z,0
2018-05-10T00:30:28.438Z,0
2018-05-10T00:31:29.109Z,0
2018-05-10T00:32:29.779Z,0
2018-05-10T00:33:30.466Z,0
2018-05-10T00:34:31.355Z,0
2018-05-10T00:35:32.026Z,0
2018-05-10T00:36:32.700Z,0
2018-05-10T00:37:33.372Z,0
2018-05-10T00:38:34.041Z,0
2018-05-10T00:39:34.710Z,0
2018-05-10T00:40:35.389Z,0
2018-05-10T00:41:36.058Z,0
2018-05-10T00:42:36.735Z,0
2018-05-10T00:43:37.402Z,0
2018-05-10T00:44:38.072Z,0
2018-05-10T00:45:38.746Z,0
2018-05-10T00:46:39.426Z,0
2018-05-10T00:47:40.100Z,0
2018-05-10T00:48:40.768Z,0
2018-05-10T00:49:41.437Z,0
2018-05-10T00:50:42.116Z,0
2018-05-10T00:51:42.789Z,0
2018-05-10T00:52:43.459Z,0
2018-05-10T00:53:44.129Z,0
2018-05-10T00:54:44.801Z,0
2018-05-10T00:55:45.472Z,0
2018-05-10T00:56:46.147Z,0
2018-05-10T00:57:46.819Z,0
2018-05-10T00:58:47.489Z,0
2018-05-10T00:59:48.160Z,0
2018-05-10T01:00:48.832Z,0
2018-05-10T01:01:49.504Z,0
2018-05-10T01:02:50.177Z,0
2018-05-10T01:03:50.847Z,0
2018-05-10T01:04:51.607Z,0
2018-05-10T01:05:52.194Z,0
2018-05-10T01:06:52.868Z,0
2018-05-10T01:07:53.540Z,0
2018-05-10T01:08:54.215Z,0
2018-05-10T01:09:54.884Z,0
2018-05-10T01:10:55.553Z,0
2018-05-10T01:11:56.229Z,0
2018-05-10T01:12:56.896Z,0
2018-05-10T01:13:57.569Z,0
2018-05-10T01:14:58.245Z,0
2018-05-10T01:15:58.917Z,0
2018-05-10T01:16:59.589Z,0
2018-05-10T01:18:00.259Z,0
2018-05-10T01:19:00.930Z,0
2018-05-10T01:20:01.604Z,0
2018-05-10T01:21:02.273Z,0
2018-05-10T01:22:02.946Z,0
2018-05-10T01:23:03.619Z,0
2018-05-10T01:24:04.290Z,0
2018-05-10T01:25:04.960Z,0
2018-05-10T01:26:05.631Z,0
2018-05-10T01:27:06.304Z,0
2018-05-10T01:28:06.977Z,0
2018-05-10T01:29:07.647Z,0
2018-05-10T01:30:08.318Z,0
2018-05-10T01:31:08.992Z,0
2018-05-10T01:32:09.668Z,0
2018-05-10T01:33:10.341Z,0
2018-05-10T01:34:11.012Z,0
2018-05-10T01:35:11.685Z,0
2018-05-10T01:36:12.361Z,0
2018-05-10T01:37:13.035Z,0
2018-05-10T01:38:13.716Z,0
2018-05-10T01:39:14.397Z,0
2018-05-10T01:40:15.069Z,0
2018-05-10T01:41:15.737Z,0
2018-05-10T01:42:16.426Z,0
2018-05-10T01:43:17.100Z,0
2018-05-10T01:44:17.772Z,0
2018-05-10T01:45:18.444Z,0
2018-05-10T01:46:19.115Z,0
2018-05-10T01:47:19.785Z,0
2018-05-10T01:48:20.456Z,0
2018-05-10T01:49:21.125Z,0
2018-05-10T01:50:21.796Z,0
2018-05-10T01:51:22.470Z,0
2018-05-10T01:52:23.141Z,0
2018-05-10T01:53:23.815Z,0
2018-05-10T01:54:24.497Z,0
2018-05-10T01:55:25.170Z,0
2018-05-10T01:56:25.841Z,0
2018-05-10T01:57:26.511Z,0
2018-05-10T01:58:27.182Z,0
2018-05-10T01:59:27.854Z,0
2018-05-10T02:00:28.525Z,0
2018-05-10T02:01:29.199Z,0
2018-05-10T02:02:29.871Z,0
2018-05-10T02:03:30.543Z,0
2018-05-10T02:04:31.214Z,0
2018-05-10T02:05:31.887Z,0
2018-05-10T02:06:32.556Z,0
2018-05-10T02:07:33.230Z,0
2018-05-10T02:08:33.903Z,0
2018-05-10T02:09:34.577Z,0
2018-05-10T02:10:35.261Z,0
2018-05-10T02:11:35.924Z,0
2018-05-10T02:12:36.594Z,0
2018-05-10T02:13:37.265Z,0
2018-05-10T02:14:37.939Z,0
2018-05-10T02:15:38.606Z,0
2018-05-10T02:16:39.278Z,0
2018-05-10T02:17:39.948Z,0
2018-05-10T02:18:40.621Z,0
2018-05-10T02:19:41.292Z,0
2018-05-10T02:20:41.975Z,0
2018-05-10T02:21:42.645Z,0
2018-05-10T02:22:43.313Z,0
2018-05-10T02:23:44.058Z,0
2018-05-10T02:24:44.661Z,0
2018-05-10T02:25:45.340Z,0
2018-05-10T02:26:46.011Z,0
2018-05-10T02:27:46.682Z,0
2018-05-10T02:28:47.358Z,0
2018-05-10T02:29:48.113Z,0
2018-05-10T02:30:48.698Z,0
2018-05-10T02:31:49.368Z,0
2018-05-10T02:32:50.039Z,0
2018-05-10T02:33:50.709Z,0
2018-05-10T02:34:51.383Z,0
2018-05-10T02:35:52.052Z,0
2018-05-10T02:36:52.727Z,0
2018-05-10T02:37:53.401Z,0
2018-05-10T02:38:54.075Z,0
2018-05-10T02:39:54.753Z,0
2018-05-10T02:40:55.419Z,0
2018-05-10T02:41:56.096Z,0
2018-05-10T02:42:56.768Z,0
2018-05-10T02:43:57.442Z,0
2018-05-10T02:44:58.235Z,0
2018-05-10T02:45:58.792Z,0
2018-05-10T02:46:59.464Z,0
2018-05-10T02:48:00.140Z,0
2018-05-10T02:49:00.808Z,0
2018-05-10T02:50:01.490Z,0
2018-05-10T02:51:02.154Z,0
2018-05-10T02:52:02.825Z,0
2018-05-10T02:53:03.507Z,0
2018-05-10T02:54:04.180Z,0
2018-05-10T02:55:04.851Z,0
2018-05-10T02:56:05.522Z,0
2018-05-10T02:57:06.200Z,0
2018-05-10T02:58:06.870Z,0
2018-05-10T02:59:07.544Z,0
2018-05-10T03:00:08.209Z,0
2018-05-10T03:01:08.884Z,0
2018-05-10T03:02:09.556Z,0
2018-05-10T03:03:10.229Z,0
2018-05-10T03:04:10.902Z,0
2018-05-10T03:05:11.571Z,0
2018-05-10T03:06:12.252Z,0
2018-05-10T03:07:12.939Z,0
2018-05-10T03:08:13.612Z,0
2018-05-10T03:09:14.296Z,0
2018-05-10T03:10:14.970Z,0
2018-05-10T03:11:15.645Z,0
2018-05-10T03:12:16.315Z,0
2018-05-10T03:13:16.986Z,0
2018-05-10T03:14:17.663Z,0
2018-05-10T03:15:18.333Z,4
2018-05-10T03:16:19.010Z,4
2018-05-10T03:17:19.683Z,0
2018-05-10T03:18:20.357Z,4
2018-05-10T03:19:21.118Z,4
2018-05-10T03:20:21.709Z,8
2018-05-10T03:21:22.381Z,4
2018-05-10T03:22:23.054Z,8
2018-05-10T03:23:23.727Z,8
2018-05-10T03:24:24.396Z,8
2018-05-10T03:25:25.069Z,12
2018-05-10T03:26:25.741Z,12
2018-05-10T03:27:26.412Z,12
2018-05-10T03:28:27.085Z,16
2018-05-10T03:29:27.756Z,20
2018-05-10T03:30:28.438Z,20
2018-05-10T03:31:29.114Z,24
2018-05-10T03:32:29.786Z,24
2018-05-10T03:33:30.459Z,28
2018-05-10T03:34:31.133Z,36
2018-05-10T03:35:31.807Z,40
2018-05-10T03:36:32.486Z,44
2018-05-10T03:37:33.165Z,48
2018-05-10T03:38:33.831Z,56
2018-05-10T03:39:34.502Z,60
2018-05-10T03:40:35.247Z,64
2018-05-10T03:41:35.850Z,76
2018-05-10T03:42:36.523Z,80
2018-05-10T03:43:37.204Z,84
2018-05-10T03:44:37.869Z,96
2018-05-10T03:45:38.549Z,104
2018-05-10T03:46:39.216Z,116
2018-05-10T03:47:39.895Z,120
2018-05-10T03:48:40.566Z,136
2018-05-10T03:49:41.237Z,144
2018-05-10T03:50:41.909Z,152
2018-05-10T03:51:42.583Z,164
2018-05-10T03:52:43.254Z,176
2018-05-10T03:53:43.928Z,192
2018-05-10T03:54:44.602Z,204
2018-05-10T03:55:45.280Z,216
2018-05-10T03:56:46.033Z,232
2018-05-10T03:57:46.626Z,240
2018-05-10T03:58:47.304Z,252
2018-05-10T03:59:47.973Z,268
2018-05-10T04:00:48.648Z,280
2018-05-10T04:01:49.329Z,296
2018-05-10T04:02:50.005Z,308
2018-05-10T04:03:50.677Z,324
2018-05-10T04:04:51.350Z,340
2018-05-10T04:05:52.023Z,352
2018-05-10T04:06:52.694Z,368
2018-05-10T04:07:53.368Z,380
2018-05-10T04:08:54.039Z,396
2018-05-10T04:09:54.710Z,408
2018-05-10T04:10:55.387Z,420
2018-05-10T04:11:56.062Z,432
2018-05-10T04:12:56.744Z,448
2018-05-10T04:13:57.417Z,460
2018-05-10T04:14:58.090Z,476
2018-05-10T04:15:58.763Z,492
2018-05-10T04:16:59.440Z,508
2018-05-10T04:18:00.111Z,524
2018-05-10T04:19:00.786Z,544
2018-05-10T04:20:01.469Z,564
2018-05-10T04:21:02.141Z,580
2018-05-10T04:22:02.811Z,596
2018-05-10T04:23:03.485Z,616
2018-05-10T04:24:04.161Z,644
2018-05-10T04:25:04.839Z,664
2018-05-10T04:26:05.512Z,668
2018-05-10T04:27:06.188Z,672
2018-05-10T04:28:06.860Z,696
2018-05-10T04:29:07.529Z,716
2018-05-10T04:30:08.205Z,728
2018-05-10T04:31:08.883Z,748
2018-05-10T04:32:09.560Z,760
2018-05-10T04:33:10.235Z,788
2018-05-10T04:34:10.910Z,808
2018-05-10T04:35:11.590Z,816
2018-05-10T04:36:12.259Z,836
2018-05-10T04:37:12.934Z,860
2018-05-10T04:38:13.606Z,908
2018-05-10T04:39:14.283Z,940
2018-05-10T04:40:14.956Z,956
2018-05-10T04:41:15.628Z,972
2018-05-10T04:42:16.416Z,988
2018-05-10T04:43:16.991Z,1004
2018-05-10T04:44:17.665Z,1016
2018-05-10T04:45:18.341Z,1028
2018-05-10T04:46:19.018Z,1044
2018-05-10T04:47:19.702Z,1060
2018-05-10T04:48:20.374Z,1076
2018-05-10T04:49:21.045Z,1084
2018-05-10T04:50:21.720Z,1104
2018-05-10T04:51:22.395Z,1116
2018-05-10T04:52:23.074Z,1132
2018-05-10T04:53:23.750Z,1140
2018-05-10T04:54:24.427Z,1156
2018-05-10T04:55:25.098Z,1172
2018-05-10T04:56:25.776Z,1180
2018-05-10T04:57:26.448Z,1196
2018-05-10T04:58:27.121Z,1208
2018-05-10T04:59:27.795Z,1224
2018-05-10T05:00:28.477Z,1236
2018-05-10T05:01:29.155Z,1252
2018-05-10T05:02:29.832Z,1268
2018-05-10T05:03:30.515Z,1276
2018-05-10T05:04:31.185Z,1288
2018-05-10T05:05:31.863Z,1304
2018-05-10T05:06:32.537Z,1316
2018-05-10T05:07:33.219Z,1328
2018-05-10T05:08:33.890Z,1340
2018-05-10T05:09:34.561Z,1356
2018-05-10T05:10:35.238Z,1364
2018-05-10T05:11:35.911Z,1376
2018-05-10T05:12:36.581Z,1388
2018-05-10T05:13:37.260Z,1400
2018-05-10T05:14:37.954Z,1412
2018-05-10T05:15:38.625Z,1424
2018-05-10T05:16:39.298Z,1432
2018-05-10T05:17:39.976Z,1444
2018-05-10T05:18:40.652Z,1456
2018-05-10T05:19:41.331Z,1468
2018-05-10T05:20:42.006Z,1476
2018-05-10T05:21:42.684Z,1484
2018-05-10T05:22:43.360Z,1492
2018-05-10T05:23:44.035Z,1504
2018-05-10T05:24:44.712Z,1516
2018-05-10T05:25:45.384Z,1524
2018-05-10T05:26:46.076Z,1536
2018-05-10T05:27:46.740Z,1548
2018-05-10T05:28:47.413Z,1556
2018-05-10T05:29:48.089Z,1564
2018-05-10T05:30:48.772Z,1576
2018-05-10T05:31:49.448Z,1584
2018-05-10T05:32:50.127Z,1592
2018-05-10T05:33:50.802Z,1600
2018-05-10T05:34:51.479Z,1596
2018-05-10T05:35:52.154Z,1604
2018-05-10T05:36:52.832Z,1620
2018-05-10T05:37:53.504Z,1636
2018-05-10T05:38:54.182Z,1644
2018-05-10T05:39:54.858Z,1652
2018-05-10T05:40:55.537Z,1664
2018-05-10T05:41:56.212Z,1672
2018-05-10T05:42:56.887Z,1680
2018-05-10T05:43:57.561Z,1688
2018-05-10T05:44:58.246Z,1696
2018-05-10T05:45:58.917Z,1704
2018-05-10T05:46:59.592Z,1716
2018-05-10T05:48:00.267Z,1724
2018-05-10T05:49:00.947Z,1728
2018-05-10T05:50:01.623Z,1740
2018-05-10T05:51:02.300Z,1744
2018-05-10T05:52:03.020Z,1748
2018-05-10T05:53:03.648Z,1732
2018-05-10T05:54:04.325Z,1744
2018-05-10T05:55:05.017Z,1756
2018-05-10T05:56:05.679Z,1760
2018-05-10T05:57:06.357Z,1784
2018-05-10T05:58:07.031Z,1800
2018-05-10T05:59:07.705Z,1804
2018-05-10T06:00:08.380Z,1808
2018-05-10T06:01:09.059Z,1816
2018-05-10T06:02:09.738Z,1828
2018-05-10T06:03:10.429Z,1836
2018-05-10T06:04:11.120Z,1840
2018-05-10T06:05:11.758Z,1848
2018-05-10T06:06:12.475Z,1852
2018-05-10T06:07:13.151Z,1860
2018-05-10T06:08:13.827Z,1868
2018-05-10T06:09:14.505Z,1872
2018-05-10T06:10:15.180Z,1876
2018-05-10T06:11:15.858Z,1884
2018-05-10T06:12:16.533Z,1892
2018-05-10T06:13:17.216Z,1896
2018-05-10T06:14:17.894Z,1900
2018-05-10T06:15:18.572Z,1908
2018-05-10T06:16:19.251Z,1912
2018-05-10T06:17:19.927Z,1916
2018-05-10T06:18:20.606Z,1928
2018-05-10T06:19:21.279Z,1932
2018-05-10T06:20:21.963Z,1940
2018-05-10T06:21:22.642Z,1944
2018-05-10T06:22:23.322Z,1848
2018-05-10T06:23:24.003Z,1852
2018-05-10T06:24:24.677Z,1860
2018-05-10T06:25:25.356Z,1864
2018-05-10T06:26:26.030Z,1872
2018-05-10T06:27:26.694Z,1876
2018-05-10T06:28:27.386Z,1888
2018-05-10T06:29:28.058Z,1892
2018-05-10T06:30:28.739Z,1896
2018-05-10T06:31:29.413Z,1900
2018-05-10T06:32:30.096Z,1908
2018-05-10T06:33:30.772Z,1916
2018-05-10T06:34:31.448Z,1920
2018-05-10T06:35:32.133Z,1924
2018-05-10T06:36:32.809Z,1932
2018-05-10T06:37:33.491Z,1936
2018-05-10T06:38:34.166Z,1944
2018-05-10T06:39:34.844Z,1952
2018-05-10T06:40:35.520Z,1956
2018-05-10T06:41:36.223Z,1968
2018-05-10T06:42:36.878Z,1972
2018-05-10T06:43:37.558Z,1980
2018-05-10T06:44:38.234Z,1984
2018-05-10T06:45:38.916Z,1548
2018-05-10T06:46:39.593Z,1996
2018-05-10T06:47:40.275Z,2004
2018-05-10T06:48:40.956Z,2012
2018-05-10T06:49:41.634Z,2016
2018-05-10T06:50:42.314Z,2028
2018-05-10T06:51:43.002Z,2036
2018-05-10T06:52:43.684Z,2044
2018-05-10T06:53:44.371Z,2056
2018-05-10T06:54:45.107Z,2068
2018-05-10T06:55:45.734Z,2076
2018-05-10T06:56:46.422Z,2084
2018-05-10T06:57:47.103Z,2096
2018-05-10T06:58:47.782Z,2100
2018-05-10T06:59:48.464Z,2108
2018-05-10T07:00:49.140Z,2112
2018-05-10T07:01:49.818Z,2124
2018-05-10T07:02:50.503Z,2132
2018-05-10T07:03:51.180Z,2136
2018-05-10T07:04:51.854Z,2140
2018-05-10T07:05:52.540Z,2148
2018-05-10T07:06:53.219Z,2148
2018-05-10T07:07:53.894Z,2156
2018-05-10T07:08:54.577Z,2164
2018-05-10T07:09:55.464Z,2168
2018-05-10T07:10:55.934Z,2176
2018-05-10T07:11:56.611Z,2184
2018-05-10T07:12:57.289Z,2192
2018-05-10T07:13:57.967Z,2200
2018-05-10T07:14:58.644Z,2212
2018-05-10T07:15:59.325Z,2224
2018-05-10T07:17:00.011Z,2236
2018-05-10T07:18:00.688Z,2244
2018-05-10T07:19:01.367Z,2256
2018-05-10T07:20:02.049Z,2264
2018-05-10T07:21:02.725Z,2272
2018-05-10T07:22:03.407Z,2276
2018-05-10T07:23:04.082Z,2280
2018-05-10T07:24:04.759Z,2284
2018-05-10T07:25:05.534Z,2292
2018-05-10T07:26:06.117Z,2304
2018-05-10T07:27:06.794Z,2312
2018-05-10T07:28:07.474Z,2324
2018-05-10T07:29:08.156Z,2336
2018-05-10T07:30:08.831Z,2340
2018-05-10T07:31:09.513Z,2344
2018-05-10T07:32:10.191Z,2348
2018-05-10T07:33:10.870Z,2348
2018-05-10T07:34:11.547Z,2360
2018-05-10T07:35:12.226Z,2368
2018-05-10T07:36:12.912Z,2376
2018-05-10T07:37:13.588Z,2388
2018-05-10T07:38:14.268Z,2392
2018-05-10T07:39:14.953Z,2408
2018-05-10T07:40:15.625Z,2416
2018-05-10T07:41:16.321Z,2428
2018-05-10T07:42:17.149Z,2432
2018-05-10T07:43:17.825Z,2440
2018-05-10T07:44:18.515Z,2448
2018-05-10T07:45:19.200Z,2460
2018-05-10T07:46:19.882Z,2468
2018-05-10T07:47:20.653Z,2476
2018-05-10T07:48:21.250Z,2480
2018-05-10T07:49:21.928Z,2492
2018-05-10T07:50:22.611Z,2496
2018-05-10T07:51:23.291Z,2508
2018-05-10T07:52:23.965Z,2516
2018-05-10T07:53:24.653Z,2524
2018-05-10T07:54:25.333Z,2536
2018-05-10T07:55:26.019Z,2548
2018-05-10T07:56:26.701Z,2564
2018-05-10T07:57:27.378Z,2584
2018-05-10T07:58:28.059Z,2604
2018-05-10T07:59:28.744Z,2616
2018-05-10T08:00:29.415Z,2636
2018-05-10T08:01:30.101Z,2652
2018-05-10T08:02:30.792Z,2664
2018-05-10T08:03:31.474Z,2680
2018-05-10T08:04:32.150Z,2684
2018-05-10T08:05:32.828Z,2700
2018-05-10T08:06:33.506Z,2720
2018-05-10T08:07:34.187Z,2748
2018-05-10T08:08:34.866Z,2784
2018-05-10T08:09:35.545Z,2816
2018-05-10T08:10:36.231Z,2852
2018-05-10T08:11:36.907Z,2904
2018-05-10T08:12:37.601Z,2956
2018-05-10T08:13:38.283Z,3008
2018-05-10T08:14:38.968Z,3056
2018-05-10T08:15:39.650Z,3080
2018-05-10T08:16:40.329Z,3108
2018-05-10T08:17:41.012Z,3120
2018-05-10T08:18:41.692Z,3144
2018-05-10T08:19:42.388Z,3144
2018-05-10T08:20:43.082Z,3156
2018-05-10T08:21:43.762Z,3216
2018-05-10T08:22:44.441Z,3284
2018-05-10T08:23:45.130Z,3272
2018-05-10T08:24:45.807Z,3244
2018-05-10T08:25:46.493Z,3280
2018-05-10T08:26:47.177Z,3372
2018-05-10T08:27:47.859Z,3512
2018-05-10T08:28:48.534Z,3692
2018-05-10T08:29:49.224Z,3872
2018-05-10T08:30:49.900Z,4056
2018-05-10T08:31:50.591Z,4096
2018-05-10T08:32:51.271Z,4168
2018-05-10T08:33:51.964Z,4240
2018-05-10T08:34:52.645Z,4324
2018-05-10T08:35:53.331Z,4272
2018-05-10T08:36:54.011Z,4164
2018-05-10T08:37:54.689Z,4104
2018-05-10T08:38:55.369Z,4044
2018-05-10T08:39:56.051Z,3992
2018-05-10T08:40:56.732Z,4024
2018-05-10T08:41:57.419Z,3952
2018-05-10T08:42:58.110Z,4288
2018-05-10T08:43:58.795Z,4484
2018-05-10T08:44:59.565Z,4856
2018-05-10T08:46:00.159Z,5268
2018-05-10T08:47:00.838Z,5672
2018-05-10T08:48:01.523Z,6044
2018-05-10T08:49:02.213Z,6288
2018-05-10T08:50:02.898Z,6412
2018-05-10T08:51:03.578Z,6460
2018-05-10T08:52:04.265Z,6372
2018-05-10T08:53:04.947Z,6280
2018-05-10T08:54:05.635Z,6172
2018-05-10T08:55:06.309Z,5992
2018-05-10T08:56:06.997Z,5808
2018-05-10T08:57:07.591Z,5620
2018-05-10T08:58:08.376Z,5300
2018-05-10T08:59:09.054Z,5096
2018-05-10T09:00:09.731Z,4888
2018-05-10T09:01:10.413Z,4936
2018-05-10T09:02:11.101Z,4432
2018-05-10T09:03:11.788Z,4412
2018-05-10T09:04:12.474Z,4620
2018-05-10T09:05:13.161Z,4816
2018-05-10T09:06:13.845Z,5072
2018-05-10T09:07:14.536Z,4996
2018-05-10T09:08:15.216Z,5704
2018-05-10T09:09:15.902Z,5752
2018-05-10T09:10:16.586Z,5804
2018-05-10T09:11:17.267Z,5892
2018-05-10T09:12:17.947Z,5784
2018-05-10T09:13:18.629Z,5836
2018-05-10T09:14:19.310Z,5892
2018-05-10T09:15:19.990Z,6236
2018-05-10T09:16:20.676Z,6400
2018-05-10T09:17:21.355Z,6872
2018-05-10T09:18:22.037Z,7380
2018-05-10T09:19:22.722Z,7292
2018-05-10T09:20:23.489Z,7168
2018-05-10T09:21:24.085Z,6968
2018-05-10T09:22:24.766Z,6580
2018-05-10T09:23:25.446Z,5488
2018-05-10T09:24:26.126Z,5200
2018-05-10T09:25:26.804Z,5580
2018-05-10T09:26:27.487Z,5572
2018-05-10T09:27:28.173Z,5396
2018-05-10T09:28:28.855Z,5476
2018-05-10T09:29:29.540Z,5080
2018-05-10T09:30:30.231Z,5528
2018-05-10T09:31:30.967Z,5504
2018-05-10T09:32:31.594Z,5488
2018-05-10T09:33:32.278Z,5528
2018-05-10T09:34:32.957Z,5460
2018-05-10T09:35:33.641Z,5608
2018-05-10T09:36:34.318Z,5588
2018-05-10T09:37:35.000Z,5544
2018-05-10T09:38:35.681Z,5864
2018-05-10T09:39:36.430Z,6080
2018-05-10T09:40:37.042Z,6332
2018-05-10T09:41:37.723Z,6520
2018-05-10T09:42:38.408Z,6508
2018-05-10T09:43:39.089Z,6512
2018-05-10T09:44:39.771Z,6808
2018-05-10T09:45:40.462Z,7148
2018-05-10T09:46:41.149Z,7124
2018-05-10T09:47:41.826Z,7512
2018-05-10T09:48:42.523Z,7480
2018-05-10T09:49:43.207Z,8024
2018-05-10T09:50:43.889Z,8396
2018-05-10T09:51:44.568Z,8484
2018-05-10T09:52:45.273Z,8788
2018-05-10T09:53:45.946Z,9040
2018-05-10T09:54:46.679Z,9228
2018-05-10T09:55:47.368Z,9324
2018-05-10T09:56:48.047Z,9440
2018-05-10T09:57:48.729Z,9496
2018-05-10T09:58:49.413Z,9696
2018-05-10T09:59:50.146Z,9736
2018-05-10T10:00:50.780Z,9884
2018-05-10T10:01:51.464Z,10020
2018-05-10T10:02:52.151Z,10088
2018-05-10T10:03:52.828Z,10108
2018-05-10T10:04:53.511Z,9980
2018-05-10T10:05:54.194Z,9596
2018-05-10T10:06:54.874Z,9396
2018-05-10T10:07:55.551Z,9084
2018-05-10T10:08:56.235Z,8768
2018-05-10T10:09:56.920Z,8380
2018-05-10T10:10:57.607Z,8172
2018-05-10T10:11:58.295Z,7768
2018-05-10T10:12:58.972Z,7504
2018-05-10T10:13:59.655Z,7072
2018-05-10T10:15:00.337Z,6744
2018-05-10T10:16:01.017Z,6832
2018-05-10T10:17:01.698Z,6680
2018-05-10T10:18:02.380Z,6592
2018-05-10T10:19:03.062Z,6520
2018-05-10T10:20:03.748Z,6448
2018-05-10T10:21:04.441Z,6424
2018-05-10T10:22:05.122Z,5368
2018-05-10T10:23:05.804Z,6496
2018-05-10T10:24:06.482Z,6488
2018-05-10T10:25:07.233Z,6500
2018-05-10T10:26:07.858Z,6528
2018-05-10T10:27:08.537Z,6560
2018-05-10T10:28:09.225Z,6576
2018-05-10T10:29:09.903Z,6548
2018-05-10T10:30:10.586Z,6448
2018-05-10T10:31:11.266Z,6328
2018-05-10T10:32:11.955Z,6264
2018-05-10T10:33:12.646Z,6192
2018-05-10T10:34:13.329Z,6104
2018-05-10T10:35:14.023Z,6004
2018-05-10T10:36:14.706Z,5912
2018-05-10T10:37:15.388Z,5824
2018-05-10T10:38:16.100Z,5716
2018-05-10T10:39:16.756Z,5524
2018-05-10T10:40:17.448Z,5288
2018-05-10T10:41:18.128Z,4980
2018-05-10T10:42:18.816Z,4664
2018-05-10T10:43:19.503Z,4356
2018-05-10T10:44:20.180Z,4204
2018-05-10T10:45:20.906Z,4128
2018-05-10T10:46:21.540Z,4096
2018-05-10T10:47:22.219Z,4036
2018-05-10T10:48:22.899Z,3956
2018-05-10T10:49:23.585Z,3892
2018-05-10T10:50:24.266Z,3748
2018-05-10T10:51:24.946Z,3528
2018-05-10T10:52:25.642Z,3360
2018-05-10T10:53:26.323Z,3264
2018-05-10T10:54:27.003Z,3240
2018-05-10T10:55:27.686Z,3224
2018-05-10T10:56:28.366Z,3232
2018-05-10T10:57:29.050Z,3256
2018-05-10T10:58:29.732Z,3272
2018-05-10T10:59:30.413Z,3268
2018-05-10T11:00:31.095Z,3244
2018-05-10T11:01:31.800Z,3224
2018-05-10T11:02:32.494Z,3188
2018-05-10T11:03:33.178Z,3124
2018-05-10T11:04:33.861Z,3060
2018-05-10T11:05:34.551Z,2972
2018-05-10T11:06:35.238Z,2912
2018-05-10T11:07:35.928Z,2896
2018-05-10T11:08:36.609Z,2872
2018-05-10T11:09:37.291Z,2808
2018-05-10T11:10:37.971Z,2768
2018-05-10T11:11:38.655Z,2740
2018-05-10T11:12:39.338Z,2688
2018-05-10T11:13:40.020Z,2632
2018-05-10T11:14:40.699Z,2552
2018-05-10T11:15:41.382Z,2488
2018-05-10T11:16:42.064Z,2512
2018-05-10T11:17:42.748Z,2548
2018-05-10T11:18:43.433Z,2560
2018-05-10T11:19:44.115Z,2576
2018-05-10T11:20:44.879Z,2572
2018-05-10T11:21:45.475Z,2584
2018-05-10T11:22:46.150Z,2604
2018-05-10T11:23:46.838Z,2612
2018-05-10T11:24:47.574Z,2604
2018-05-10T11:25:48.199Z,2576
2018-05-10T11:26:48.881Z,2548
2018-05-10T11:27:49.571Z,2528
2018-05-10T11:28:50.251Z,2516
2018-05-10T11:29:50.932Z,2524
2018-05-10T11:30:51.612Z,2532
2018-05-10T11:31:52.292Z,2536
2018-05-10T11:32:53.011Z,2552
2018-05-10T11:33:53.677Z,2580
2018-05-10T11:34:54.358Z,2624
2018-05-10T11:35:55.043Z,2668
2018-05-10T11:36:55.724Z,2728
2018-05-10T11:37:56.404Z,2780
2018-05-10T11:38:57.084Z,2828
2018-05-10T11:39:57.763Z,2892
2018-05-10T11:40:58.544Z,2956
2018-05-10T11:41:59.131Z,3008
2018-05-10T11:42:59.819Z,3044
2018-05-10T11:44:00.509Z,3080
2018-05-10T11:45:01.269Z,3040
2018-05-10T11:46:01.897Z,2892
2018-05-10T11:47:02.575Z,2688
2018-05-10T11:48:03.260Z,2484
2018-05-10T11:49:03.951Z,2288
2018-05-10T11:50:04.629Z,1996
2018-05-10T11:51:05.316Z,1832
2018-05-10T11:52:06.003Z,1776
2018-05-10T11:53:06.690Z,1504
2018-05-10T11:54:07.375Z,1192
2018-05-10T11:55:08.119Z,872
2018-05-10T11:56:08.834Z,740
2018-05-10T11:57:09.521Z,724
2018-05-10T11:58:10.200Z,868
2018-05-10T11:59:10.884Z,972
2018-05-10T12:00:11.566Z,1316
2018-05-10T12:01:12.245Z,1712
2018-05-10T12:02:12.939Z,2128
2018-05-10T12:03:13.621Z,2372
2018-05-10T12:04:14.297Z,2628
2018-05-10T12:05:15.033Z,2920
2018-05-10T12:06:15.712Z,2988
2018-05-10T12:07:16.395Z,2992
2018-05-10T12:08:17.068Z,2960
2018-05-10T12:09:17.765Z,2916
2018-05-10T12:10:18.449Z,2888
2018-05-10T12:11:19.131Z,2928
2018-05-10T12:12:19.859Z,2976
2018-05-10T12:13:20.542Z,3032
2018-05-10T12:14:21.231Z,3076
2018-05-10T12:15:21.926Z,3132
2018-05-10T12:16:22.607Z,3216
2018-05-10T12:17:23.291Z,3312
2018-05-10T12:18:23.970Z,3396
2018-05-10T12:19:24.652Z,3480
2018-05-10T12:20:25.384Z,3564
2018-05-10T12:21:26.017Z,3644
2018-05-10T12:22:26.698Z,3720
2018-05-10T12:23:27.381Z,3792
2018-05-10T12:24:28.080Z,3860
2018-05-10T12:25:28.845Z,3916
2018-05-10T12:26:29.445Z,3968
2018-05-10T12:27:30.133Z,4004
2018-05-10T12:28:30.812Z,4036
2018-05-10T12:29:31.489Z,4044
2018-05-10T12:30:32.259Z,4048
2018-05-10T12:31:32.857Z,4036
2018-05-10T12:32:33.538Z,4032
2018-05-10T12:33:34.221Z,4016
2018-05-10T12:34:34.901Z,3988
2018-05-10T12:35:35.583Z,3968
2018-05-10T12:36:36.265Z,3940
2018-05-10T12:37:37.012Z,3920
2018-05-10T12:38:37.696Z,3908
2018-05-10T12:39:38.382Z,3916
2018-05-10T12:40:39.066Z,3940
2018-05-10T12:41:39.814Z,3964
2018-05-10T12:42:40.439Z,3980
2018-05-10T12:43:41.119Z,3996
2018-05-10T12:44:41.797Z,4008
2018-05-10T12:45:42.481Z,4036
2018-05-10T12:46:43.160Z,4056
2018-05-10T12:47:43.851Z,4088
2018-05-10T12:48:44.588Z,4136
2018-05-10T12:49:45.215Z,4208
2018-05-10T12:50:45.912Z,4300
2018-05-10T12:51:46.595Z,4368
2018-05-10T12:52:47.284Z,4396
2018-05-10T12:53:47.969Z,4408
2018-05-10T12:54:48.658Z,4384
2018-05-10T12:55:49.346Z,4392
2018-05-10T12:56:50.028Z,4460
2018-05-10T12:57:50.706Z,4576
2018-05-10T12:58:51.388Z,4712
2018-05-10T12:59:52.077Z,4880
2018-05-10T13:00:52.765Z,5060
2018-05-10T13:01:53.440Z,5272
2018-05-10T13:02:54.216Z,5508
2018-05-10T13:03:54.814Z,5808
2018-05-10T13:04:55.500Z,6140
2018-05-10T13:05:56.192Z,6508
2018-05-10T13:06:56.963Z,6880
2018-05-10T13:07:57.576Z,7252
2018-05-10T13:08:58.268Z,7008
2018-05-10T13:09:58.949Z,7392
2018-05-10T13:10:59.630Z,7832
2018-05-10T13:12:00.313Z,8328
2018-05-10T13:13:00.992Z,8896
2018-05-10T13:14:01.678Z,9464
2018-05-10T13:15:02.368Z,10028
2018-05-10T13:16:03.119Z,10608
2018-05-10T13:17:03.736Z,11216
2018-05-10T13:18:04.415Z,11760
2018-05-10T13:19:05.102Z,12136
2018-05-10T13:20:05.790Z,12320
2018-05-10T13:21:06.473Z,12424
2018-05-10T13:22:07.152Z,13340
2018-05-10T13:23:07.835Z,13324
2018-05-10T13:24:08.520Z,13300
2018-05-10T13:25:09.201Z,13248
2018-05-10T13:26:09.891Z,13304
2018-05-10T13:27:10.575Z,13440
2018-05-10T13:28:11.266Z,13876
2018-05-10T13:29:11.954Z,14664
2018-05-10T13:30:12.632Z,18208
2018-05-10T13:31:13.317Z,21920
2018-05-10T13:32:14.064Z,20544
2018-05-10T13:33:14.687Z,21536
2018-05-10T13:34:15.373Z,18848
2018-05-10T13:35:16.054Z,18752
2018-05-10T13:36:16.741Z,17408
2018-05-10T13:37:17.433Z,20512
2018-05-10T13:38:18.160Z,19488
2018-05-10T13:39:18.798Z,17792
2018-05-10T13:40:19.482Z,23392
2018-05-10T13:41:20.164Z,24800
2018-05-10T13:42:20.890Z,27680
2018-05-10T13:43:21.529Z,10108
2018-05-10T13:44:22.221Z,13972
2018-05-10T13:45:22.907Z,16704
2018-05-10T13:46:23.588Z,25280
2018-05-10T13:47:24.387Z,27840
2018-05-10T13:48:24.959Z,28352
2018-05-10T13:49:25.648Z,28832